Time;durP1;ratioP1;P1;durP2;ratioP2;P2;SDS_P1;SDS_P2;PMS_P1;PMS_P2;Temp;Humidity;BMP_temperature;BMP_pressure;BME280_temperature;BME280_humidity;BME280_pressure;Samples;Min_cycle;Max_cycle;Signal;HPM_P1;HPM_P2
2021/06/10 00:01:57;;;;;;;16.80;15.47;;;15.00;99.90;;;;;;5031123;28;20476;-74
2021/06/10 00:04:23;;;;;;;18.50;15.67;;;15.00;99.90;;;;;;5029875;28;20550;-74
2021/06/10 00:06:49;;;;;;;16.53;15.40;;;14.90;99.90;;;;;;5030883;28;20469;-73
2021/06/10 00:09:16;;;;;;;15.57;14.67;;;14.90;99.90;;;;;;5035430;28;20495;-73
2021/06/10 00:11:42;;;;;;;15.93;15.00;;;14.90;99.90;;;;;;5034002;28;20955;-73
2021/06/10 00:14:12;;;;;;;16.73;15.70;;;14.90;99.90;;;;;;5030974;28;20492;-75
2021/06/10 00:16:39;;;;;;;17.30;16.17;;;14.80;99.90;;;;;;5036772;28;20965;-74
2021/06/10 00:19:05;;;;;;;16.50;15.50;;;14.70;99.90;;;;;;5030471;28;20549;-73
2021/06/10 00:21:32;;;;;;;15.87;14.87;;;14.60;99.90;;;;;;5028252;28;20998;-74
2021/06/10 00:23:58;;;;;;;17.10;16.10;;;14.60;99.90;;;;;;5034704;28;20850;-73
2021/06/10 00:26:25;;;;;;;17.30;16.00;;;14.60;99.90;;;;;;5031948;28;20863;-73
2021/06/10 00:28:51;;;;;;;16.90;15.90;;;14.60;99.90;;;;;;5038261;28;20985;-75
2021/06/10 00:31:19;;;;;;;17.13;15.93;;;14.60;99.90;;;;;;5039163;28;20464;-75
2021/06/10 00:33:45;;;;;;;16.73;15.60;;;14.60;99.90;;;;;;5030406;28;20730;-74
2021/06/10 00:36:12;;;;;;;17.83;16.17;;;14.60;99.90;;;;;;5030841;28;20978;-74
2021/06/10 00:38:38;;;;;;;16.00;15.20;;;14.60;99.90;;;;;;5032517;28;20463;-75
2021/06/10 00:41:04;;;;;;;17.30;16.20;;;14.60;99.90;;;;;;5029124;28;21109;-74
2021/06/10 00:43:31;;;;;;;16.03;15.03;;;14.60;99.90;;;;;;5031908;28;20529;-74
2021/06/10 00:45:57;;;;;;;17.10;16.10;;;14.50;99.90;;;;;;5025726;28;20487;-74
2021/06/10 00:48:25;;;;;;;16.10;15.23;;;14.50;99.90;;;;;;5035141;28;20538;-75
2021/06/10 00:50:52;;;;;;;16.40;15.30;;;14.50;99.90;;;;;;5037500;28;20470;-73
2021/06/10 00:53:21;;;;;;;17.10;16.00;;;14.40;99.90;;;;;;5031533;28;20860;-74
2021/06/10 00:55:49;;;;;;;17.23;16.13;;;14.40;99.90;;;;;;5033459;28;20463;-74
2021/06/10 00:58:15;;;;;;;17.97;16.83;;;14.40;99.90;;;;;;5028658;28;20472;-74
2021/06/10 01:00:42;;;;;;;18.20;17.20;;;14.30;99.90;;;;;;5029556;28;20481;-74
2021/06/10 01:03:08;;;;;;;18.40;17.40;;;14.30;99.90;;;;;;5027796;28;20837;-73
2021/06/10 01:05:37;;;;;;;18.60;17.40;;;14.20;99.90;;;;;;5032778;28;20500;-73
2021/06/10 01:08:13;;;;;;;19.00;17.80;;;14.10;99.90;;;;;;5033706;28;20468;-74
2021/06/10 01:10:46;;;;;;;17.87;16.73;;;14.00;99.90;;;;;;5028508;28;20543;-74
2021/06/10 01:13:21;;;;;;;17.70;16.70;;;14.00;99.90;;;;;;5030821;28;20480;-74
2021/06/10 01:15:50;;;;;;;19.47;18.37;;;14.00;99.90;;;;;;5031517;28;20538;-73
2021/06/10 01:18:18;;;;;;;18.83;17.50;;;14.00;99.90;;;;;;5035315;28;20460;-73
2021/06/10 01:20:47;;;;;;;18.20;17.10;;;13.90;99.90;;;;;;5031002;28;20505;-74
2021/06/10 01:23:25;;;;;;;18.07;16.97;;;13.90;99.90;;;;;;5031923;28;20460;-74
2021/06/10 01:26:08;;;;;;;17.57;16.67;;;13.90;99.90;;;;;;5028164;28;20472;-73
2021/06/10 01:28:37;;;;;;;19.57;18.30;;;13.90;99.90;;;;;;5034238;28;20470;-74
2021/06/10 01:31:06;;;;;;;19.97;18.73;;;13.90;99.90;;;;;;5043348;28;20452;-75
2021/06/10 01:33:37;;;;;;;19.53;18.33;;;13.80;99.90;;;;;;5034808;28;20553;-74
2021/06/10 01:36:07;;;;;;;20.60;19.20;;;13.70;99.90;;;;;;5033395;28;20462;-73
2021/06/10 01:38:35;;;;;;;18.40;17.30;;;13.70;99.90;;;;;;5033673;28;20463;-74
2021/06/10 01:41:03;;;;;;;19.63;18.33;;;13.60;99.90;;;;;;5038545;28;20807;-73
2021/06/10 01:43:35;;;;;;;19.63;18.30;;;13.60;99.90;;;;;;5030564;28;20522;-73
2021/06/10 01:46:04;;;;;;;19.20;17.80;;;13.60;99.90;;;;;;5029860;28;20648;-74
2021/06/10 01:48:33;;;;;;;20.33;18.80;;;13.60;99.90;;;;;;5040834;28;20472;-74
2021/06/10 01:51:02;;;;;;;20.70;19.30;;;13.50;99.90;;;;;;5035893;28;20962;-73
2021/06/10 01:53:29;;;;;;;18.93;17.60;;;13.40;99.90;;;;;;5031757;28;20475;-75
2021/06/10 01:55:59;;;;;;;20.03;18.60;;;13.40;99.90;;;;;;5038310;28;20456;-74
2021/06/10 01:58:26;;;;;;;19.70;18.30;;;13.30;99.90;;;;;;5038320;28;20491;-74
2021/06/10 02:00:54;;;;;;;18.90;17.50;;;13.30;99.90;;;;;;5040110;28;20494;-73
2021/06/10 02:03:24;;;;;;;19.30;17.77;;;13.40;99.90;;;;;;5036157;28;20887;-74
2021/06/10 02:05:52;;;;;;;19.67;18.37;;;13.30;99.90;;;;;;5031097;28;20479;-74
2021/06/10 02:08:19;;;;;;;20.00;18.70;;;13.30;99.90;;;;;;5033435;28;20460;-74
2021/06/10 02:10:50;;;;;;;19.00;17.80;;;13.20;99.90;;;;;;5031894;28;20456;-74
2021/06/10 02:13:16;;;;;;;18.90;17.80;;;13.20;99.90;;;;;;5040196;28;21036;-74
2021/06/10 02:15:45;;;;;;;19.30;18.00;;;13.10;99.90;;;;;;5035654;28;20536;-74
2021/06/10 02:18:13;;;;;;;19.93;18.73;;;13.10;99.90;;;;;;5036921;28;20526;-74
2021/06/10 02:20:41;;;;;;;21.33;19.17;;;13.00;99.90;;;;;;5033395;28;20467;-74
2021/06/10 02:23:08;;;;;;;20.50;19.10;;;13.00;99.90;;;;;;5031901;28;20505;-73
2021/06/10 02:25:34;;;;;;;20.57;19.17;;;12.90;99.90;;;;;;5033897;28;20828;-74
2021/06/10 02:28:01;;;;;;;19.73;18.53;;;12.90;99.90;;;;;;5037081;28;20470;-74
2021/06/10 02:30:28;;;;;;;19.87;18.60;;;12.90;99.90;;;;;;5040440;28;20466;-73
2021/06/10 02:32:55;;;;;;;19.70;18.30;;;12.80;99.90;;;;;;5031326;28;20464;-74
2021/06/10 02:35:21;;;;;;;20.83;19.53;;;12.80;99.90;;;;;;5035664;28;20535;-75
2021/06/10 02:37:51;;;;;;;21.37;19.80;;;12.80;99.90;;;;;;5035317;28;20465;-74
2021/06/10 02:40:23;;;;;;;20.90;19.40;;;12.70;99.90;;;;;;5035083;28;20465;-74
2021/06/10 02:42:50;;;;;;;21.17;19.37;;;12.80;99.90;;;;;;5036273;28;20463;-74
2021/06/10 02:45:17;;;;;;;20.90;19.50;;;12.70;99.90;;;;;;5036282;28;20586;-73
2021/06/10 02:47:46;;;;;;;20.90;19.23;;;12.80;99.90;;;;;;5032542;28;20456;-74
2021/06/10 02:50:16;;;;;;;20.70;19.33;;;12.80;99.90;;;;;;5033390;28;20479;-74
2021/06/10 02:52:46;;;;;;;19.80;18.60;;;12.80;99.90;;;;;;5030523;28;20460;-74
2021/06/10 02:55:15;;;;;;;20.23;19.00;;;12.70;99.90;;;;;;5031569;28;20496;-75
2021/06/10 02:57:43;;;;;;;20.13;18.93;;;12.70;99.90;;;;;;5032810;28;20471;-74
2021/06/10 03:00:12;;;;;;;20.50;19.10;;;12.70;99.90;;;;;;5033017;28;20488;-74
2021/06/10 03:02:39;;;;;;;20.40;19.00;;;12.70;99.90;;;;;;5038935;28;20463;-74
2021/06/10 03:05:08;;;;;;;19.60;18.40;;;12.70;99.90;;;;;;5026945;28;20540;-75
2021/06/10 03:07:36;;;;;;;20.80;19.40;;;12.70;99.90;;;;;;5030998;28;20463;-73
2021/06/10 03:10:07;;;;;;;20.80;19.30;;;12.70;99.90;;;;;;5037107;28;20928;-73
2021/06/10 03:12:36;;;;;;;20.70;19.40;;;12.70;99.90;;;;;;5033163;28;20771;-74
2021/06/10 03:15:04;;;;;;;21.00;19.60;;;12.60;99.90;;;;;;5032084;28;20499;-74
2021/06/10 03:17:31;;;;;;;21.57;19.97;;;12.60;99.90;;;;;;5034826;28;20473;-74
2021/06/10 03:19:58;;;;;;;20.63;19.27;;;12.60;99.90;;;;;;5032285;28;20472;-75
2021/06/10 03:22:25;;;;;;;22.17;20.57;;;12.60;99.90;;;;;;5034001;28;20464;-74
2021/06/10 03:24:52;;;;;;;20.17;18.83;;;12.50;99.90;;;;;;5029437;28;20465;-74
2021/06/10 03:27:19;;;;;;;21.17;19.47;;;12.50;99.90;;;;;;5032393;28;20462;-74
2021/06/10 03:29:48;;;;;;;21.10;19.60;;;12.50;99.90;;;;;;5034630;28;20464;-76
2021/06/10 03:32:14;;;;;;;20.27;18.97;;;12.50;99.90;;;;;;5035923;28;20465;-74
2021/06/10 03:34:42;;;;;;;20.67;18.80;;;12.50;99.90;;;;;;5036345;28;21291;-74
2021/06/10 03:37:09;;;;;;;19.27;17.83;;;12.50;99.90;;;;;;5035059;28;20543;-74
2021/06/10 03:39:37;;;;;;;21.93;20.23;;;12.50;99.90;;;;;;5032464;28;20459;-74
2021/06/10 03:42:05;;;;;;;22.40;20.80;;;12.40;99.90;;;;;;5024509;28;22842;-74
2021/06/10 03:44:32;;;;;;;23.97;22.17;;;12.30;99.90;;;;;;5032272;28;20499;-75
2021/06/10 03:47:01;;;;;;;23.00;21.10;;;12.40;99.90;;;;;;5035981;28;20457;-75
2021/06/10 03:49:27;;;;;;;24.07;22.23;;;12.40;99.90;;;;;;5035349;28;21088;-74
2021/06/10 03:51:55;;;;;;;22.53;20.83;;;12.50;99.90;;;;;;5032356;28;21077;-75
2021/06/10 03:54:22;;;;;;;22.30;20.80;;;12.60;99.90;;;;;;5031328;28;20569;-75
2021/06/10 03:56:49;;;;;;;21.33;19.50;;;12.60;99.90;;;;;;5030167;28;20491;-76
2021/06/10 03:59:15;;;;;;;22.73;21.03;;;12.70;99.90;;;;;;5035713;28;20504;-74
2021/06/10 04:01:42;;;;;;;23.07;21.47;;;12.80;99.90;;;;;;5043965;28;20488;-73
2021/06/10 04:04:10;;;;;;;22.33;20.83;;;12.90;99.90;;;;;;5026819;28;20461;-74
2021/06/10 04:06:38;;;;;;;23.17;21.33;;;12.90;99.90;;;;;;5031704;28;20463;-74
2021/06/10 04:09:06;;;;;;;22.77;21.17;;;12.90;99.90;;;;;;5031120;28;20468;-74
2021/06/10 04:11:33;;;;;;;23.10;21.20;;;12.90;99.90;;;;;;5031113;28;20542;-74
2021/06/10 04:13:59;;;;;;;24.10;22.30;;;13.00;99.90;;;;;;5033215;28;20826;-74
2021/06/10 04:16:26;;;;;;;23.93;22.27;;;13.00;99.90;;;;;;5032572;28;20460;-74
2021/06/10 04:18:54;;;;;;;24.20;22.50;;;13.10;99.90;;;;;;5030933;28;20555;-74
2021/06/10 04:21:22;;;;;;;23.97;22.10;;;13.10;99.90;;;;;;5029819;28;20563;-76
2021/06/10 04:23:49;;;;;;;27.20;24.60;;;13.10;99.90;;;;;;5034651;28;20471;-74
2021/06/10 04:26:16;;;;;;;24.00;22.20;;;13.20;99.90;;;;;;5031591;28;21163;-74
2021/06/10 04:28:45;;;;;;;25.27;22.90;;;13.30;99.90;;;;;;5030537;28;20465;-74
2021/06/10 04:31:12;;;;;;;25.27;22.97;;;13.40;99.90;;;;;;5035935;28;20456;-74
2021/06/10 04:33:38;;;;;;;26.47;24.27;;;13.50;99.90;;;;;;5031101;28;21077;-75
2021/06/10 04:36:05;;;;;;;27.23;24.90;;;13.50;99.90;;;;;;5035276;28;20521;-74
2021/06/10 04:38:33;;;;;;;27.27;25.10;;;13.60;99.90;;;;;;5030868;28;20572;-77
2021/06/10 04:41:00;;;;;;;29.00;26.60;;;13.70;99.90;;;;;;5034507;28;20983;-74
2021/06/10 04:43:26;;;;;;;30.83;27.83;;;13.80;99.90;;;;;;5034915;28;20846;-73
2021/06/10 04:45:53;;;;;;;28.97;26.73;;;13.90;99.90;;;;;;5035982;28;20484;-75
2021/06/10 04:48:19;;;;;;;27.63;25.00;;;14.00;99.90;;;;;;5035432;28;20472;-75
2021/06/10 04:50:45;;;;;;;27.90;25.70;;;14.10;99.90;;;;;;5029548;28;20478;-74
2021/06/10 04:53:13;;;;;;;26.57;24.67;;;14.10;99.90;;;;;;5032477;28;20460;-75
2021/06/10 04:55:40;;;;;;;27.83;25.47;;;14.20;99.90;;;;;;5032610;28;20921;-74
2021/06/10 04:58:07;;;;;;;27.20;25.07;;;14.30;99.90;;;;;;5036060;28;20740;-76
2021/06/10 05:00:34;;;;;;;29.23;26.53;;;14.40;99.90;;;;;;5033265;28;20497;-74
2021/06/10 05:03:00;;;;;;;28.10;25.90;;;14.50;99.90;;;;;;5029247;28;20464;-75
2021/06/10 05:05:27;;;;;;;27.20;25.20;;;14.60;99.90;;;;;;5031451;28;20465;-75
2021/06/10 05:07:53;;;;;;;29.00;26.70;;;14.70;99.90;;;;;;5033200;28;21076;-74
2021/06/10 05:10:20;;;;;;;29.03;26.73;;;14.80;99.90;;;;;;5039161;28;20463;-74
2021/06/10 05:12:47;;;;;;;28.17;26.03;;;14.90;99.90;;;;;;5034096;28;20451;-74
2021/06/10 05:15:14;;;;;;;30.17;27.87;;;15.10;99.90;;;;;;5041510;28;20492;-75
2021/06/10 05:17:41;;;;;;;31.63;29.00;;;15.10;99.90;;;;;;5040450;28;20978;-74
2021/06/10 05:20:08;;;;;;;30.77;27.93;;;15.20;99.90;;;;;;5034443;28;20468;-74
2021/06/10 05:22:35;;;;;;;30.23;27.50;;;15.40;99.90;;;;;;5038358;28;20853;-74
2021/06/10 05:25:01;;;;;;;28.83;26.53;;;15.50;99.90;;;;;;5036421;28;20465;-75
2021/06/10 05:27:28;;;;;;;28.27;25.90;;;15.60;99.90;;;;;;5035308;28;20459;-74
2021/06/10 05:29:56;;;;;;;30.30;27.30;;;15.80;99.90;;;;;;5036418;28;20487;-75
2021/06/10 05:32:22;;;;;;;27.23;25.10;;;15.90;99.90;;;;;;5038181;28;20522;-75
2021/06/10 05:34:49;;;;;;;27.33;25.30;;;16.10;99.90;;;;;;5031451;28;21026;-74
2021/06/10 05:37:15;;;;;;;26.50;24.27;;;16.30;99.90;;;;;;5037207;28;20488;-73
2021/06/10 05:39:41;;;;;;;25.83;23.23;;;16.40;99.90;;;;;;5044447;28;20492;-74
2021/06/10 05:42:08;;;;;;;24.63;22.90;;;16.60;99.90;;;;;;5036711;28;20467;-74
2021/06/10 05:44:35;;;;;;;25.90;23.83;;;16.90;99.90;;;;;;5035939;28;20487;-74
2021/06/10 05:47:04;;;;;;;25.33;23.30;;;17.00;99.90;;;;;;5035188;28;20461;-74
2021/06/10 05:49:30;;;;;;;23.43;21.67;;;17.10;99.90;;;;;;5040887;28;21051;-74
2021/06/10 05:51:56;;;;;;;24.10;22.07;;;17.30;99.90;;;;;;5038983;28;20460;-73
2021/06/10 05:54:23;;;;;;;22.57;21.07;;;17.40;99.90;;;;;;5032394;28;20479;-74
2021/06/10 05:56:51;;;;;;;23.43;21.70;;;17.50;99.90;;;;;;5034006;28;20525;-73
2021/06/10 05:59:17;;;;;;;22.13;20.57;;;17.70;99.90;;;;;;5033568;28;20474;-74
2021/06/10 06:01:44;;;;;;;21.13;19.63;;;17.90;99.90;;;;;;5033402;28;20937;-74
2021/06/10 06:04:11;;;;;;;22.87;20.93;;;18.00;99.90;;;;;;5042704;28;20521;-74
2021/06/10 06:06:38;;;;;;;21.57;20.17;;;18.20;99.90;;;;;;5037030;28;20467;-74
2021/06/10 06:09:07;;;;;;;22.03;20.33;;;18.30;99.90;;;;;;5037236;28;20969;-73
2021/06/10 06:11:34;;;;;;;21.33;19.83;;;18.30;99.90;;;;;;5036803;28;20471;-73
2021/06/10 06:14:07;;;;;;;21.47;19.70;;;18.40;99.90;;;;;;5041480;28;20485;-73
2021/06/10 06:16:34;;;;;;;19.93;18.63;;;18.50;99.90;;;;;;5036507;28;20564;-75
2021/06/10 06:19:02;;;;;;;20.60;18.97;;;18.60;99.90;;;;;;5035175;28;21019;-74
2021/06/10 06:21:30;;;;;;;21.60;20.00;;;18.70;99.90;;;;;;5033805;28;20742;-74
2021/06/10 06:23:57;;;;;;;20.70;19.20;;;18.90;99.90;;;;;;5039373;28;20529;-73
2021/06/10 06:26:24;;;;;;;20.67;19.47;;;19.00;99.90;;;;;;5034846;28;21079;-74
2021/06/10 06:28:53;;;;;;;20.53;18.83;;;19.10;99.90;;;;;;5034430;28;20667;-73
2021/06/10 06:31:20;;;;;;;20.70;18.60;;;19.30;99.90;;;;;;5037610;28;20500;-75
2021/06/10 06:33:47;;;;;;;21.23;19.10;;;19.40;99.90;;;;;;5031762;28;20468;-74
2021/06/10 06:36:13;;;;;;;20.57;19.07;;;19.50;99.90;;;;;;5038776;28;20503;-73
2021/06/10 06:38:41;;;;;;;18.97;17.67;;;19.60;99.90;;;;;;5033279;28;20821;-73
2021/06/10 06:41:08;;;;;;;19.60;18.40;;;19.70;99.90;;;;;;5037016;28;20467;-74
2021/06/10 06:43:35;;;;;;;19.63;17.80;;;19.70;99.90;;;;;;5038095;28;20558;-74
2021/06/10 06:46:03;;;;;;;18.63;17.33;;;19.80;99.90;;;;;;5035865;28;20488;-74
2021/06/10 06:48:29;;;;;;;19.00;17.50;;;20.00;99.90;;;;;;5032043;28;20548;-73
2021/06/10 06:50:56;;;;;;;19.40;17.70;;;20.10;99.90;;;;;;5034674;28;20553;-73
2021/06/10 06:53:22;;;;;;;18.53;17.17;;;20.20;99.90;;;;;;5034284;28;20650;-73
2021/06/10 06:55:50;;;;;;;53.27;17.70;;;20.30;99.90;;;;;;5037810;28;20488;-75
2021/06/10 06:58:16;;;;;;;19.00;17.50;;;20.60;99.90;;;;;;5034912;28;21153;-73
2021/06/10 07:00:42;;;;;;;19.13;17.40;;;20.70;99.90;;;;;;5037678;28;20483;-74
2021/06/10 07:03:09;;;;;;;18.57;17.17;;;20.70;99.90;;;;;;5033586;28;20468;-74
2021/06/10 07:05:35;;;;;;;17.83;16.40;;;20.80;99.90;;;;;;5038316;28;21041;-73
2021/06/10 07:08:01;;;;;;;18.43;17.27;;;20.90;99.90;;;;;;5037839;28;20472;-73
2021/06/10 07:10:28;;;;;;;17.37;16.03;;;21.00;99.90;;;;;;5039650;28;20460;-73
2021/06/10 07:12:55;;;;;;;17.63;16.40;;;21.20;99.90;;;;;;5037334;28;20472;-73
2021/06/10 07:15:22;;;;;;;16.20;15.20;;;21.30;99.90;;;;;;5030978;28;20504;-73
2021/06/10 07:17:48;;;;;;;16.77;15.47;;;21.40;99.90;;;;;;5036641;28;20464;-73
2021/06/10 07:20:15;;;;;;;16.13;15.27;;;21.40;99.90;;;;;;5026335;28;20486;-73
2021/06/10 07:22:42;;;;;;;17.03;15.87;;;21.60;99.90;;;;;;5032058;28;20507;-73
2021/06/10 07:25:09;;;;;;;18.67;16.10;;;21.70;99.90;;;;;;5029817;28;20476;-73
2021/06/10 07:27:36;;;;;;;17.47;15.87;;;21.90;99.90;;;;;;5030212;28;20470;-74
2021/06/10 07:30:06;;;;;;;28.83;15.90;;;22.10;99.90;;;;;;5032507;28;20673;-73
2021/06/10 07:32:33;;;;;;;16.43;15.47;;;22.20;99.90;;;;;;5032101;28;20456;-74
2021/06/10 07:34:59;;;;;;;17.00;14.60;;;22.40;99.90;;;;;;5028718;28;20479;-74
2021/06/10 07:37:26;;;;;;;16.93;15.30;;;22.60;99.90;;;;;;5036188;28;20469;-73
2021/06/10 07:39:52;;;;;;;15.73;14.73;;;22.90;99.90;;;;;;5039708;28;20457;-73
2021/06/10 07:42:19;;;;;;;15.73;14.73;;;23.10;99.90;;;;;;5037199;28;20468;-73
2021/06/10 07:44:45;;;;;;;16.30;15.10;;;23.40;99.90;;;;;;5035360;28;20540;-73
2021/06/10 07:47:14;;;;;;;16.50;14.80;;;23.60;99.90;;;;;;5036782;28;20467;-73
2021/06/10 07:49:40;;;;;;;15.93;14.60;;;23.40;99.90;;;;;;5031258;28;21039;-74
2021/06/10 07:52:07;;;;;;;20.03;16.30;;;23.50;99.90;;;;;;5040789;28;20469;-73
2021/06/10 07:54:33;;;;;;;15.93;14.90;;;23.80;99.90;;;;;;5032455;28;20488;-74
2021/06/10 07:57:00;;;;;;;19.33;15.53;;;23.80;99.90;;;;;;5033045;28;20479;-74
2021/06/10 07:59:26;;;;;;;17.03;15.70;;;23.90;99.90;;;;;;5034135;28;20552;-73
2021/06/10 08:01:54;;;;;;;16.27;15.03;;;24.10;99.90;;;;;;5038096;28;20813;-73
2021/06/10 08:04:22;;;;;;;20.37;15.13;;;24.60;99.90;;;;;;5036558;28;20825;-73
2021/06/10 08:06:49;;;;;;;17.37;15.47;;;25.70;99.90;;;;;;5032010;28;20459;-73
2021/06/10 08:09:15;;;;;;;23.30;14.77;;;26.70;99.90;;;;;;5038996;28;20459;-74
2021/06/10 08:11:43;;;;;;;19.17;15.03;;;27.90;98.60;;;;;;5035263;28;20473;-73
2021/06/10 08:14:10;;;;;;;23.10;16.27;;;28.60;96.50;;;;;;5032889;28;20473;-73
2021/06/10 08:16:37;;;;;;;17.50;15.67;;;28.70;95.50;;;;;;5043897;28;20451;-74
2021/06/10 08:19:04;;;;;;;28.27;15.70;;;29.30;94.70;;;;;;5030246;28;20878;-73
2021/06/10 08:21:32;;;;;;;24.10;16.20;;;28.00;94.80;;;;;;5034116;28;20472;-73
2021/06/10 08:23:59;;;;;;;19.93;15.13;;;29.10;94.10;;;;;;5032098;28;20811;-74
2021/06/10 08:26:25;;;;;;;18.40;15.63;;;29.80;93.40;;;;;;5029165;28;20461;-73
2021/06/10 08:28:52;;;;;;;18.97;15.50;;;28.70;93.40;;;;;;5037889;28;20491;-73
2021/06/10 08:31:18;;;;;;;17.20;15.50;;;29.70;91.80;;;;;;5037205;28;20521;-72
2021/06/10 08:33:45;;;;;;;17.93;16.23;;;29.10;91.30;;;;;;5036802;28;20464;-74
2021/06/10 08:36:12;;;;;;;17.03;15.70;;;28.50;92.70;;;;;;5033800;28;20473;-73
2021/06/10 08:38:40;;;;;;;15.90;15.10;;;29.10;91.40;;;;;;5036208;28;20956;-73
2021/06/10 08:41:07;;;;;;;16.37;15.33;;;28.70;91.80;;;;;;5041718;28;20465;-74
2021/06/10 08:43:33;;;;;;;16.40;15.20;;;27.70;92.40;;;;;;5036113;28;20467;-73
2021/06/10 08:46:03;;;;;;;15.33;14.57;;;27.80;93.40;;;;;;5039834;28;20483;-73
2021/06/10 08:48:33;;;;;;;16.50;15.20;;;27.80;92.80;;;;;;5033391;28;20460;-74
2021/06/10 08:51:01;;;;;;;16.37;15.20;;;28.40;92.90;;;;;;5032059;28;20467;-73
2021/06/10 08:53:28;;;;;;;17.53;16.53;;;28.80;91.50;;;;;;5033552;28;20870;-74
2021/06/10 08:55:56;;;;;;;17.20;16.30;;;29.80;90.90;;;;;;5035452;28;20499;-73
2021/06/10 08:58:23;;;;;;;17.23;16.07;;;29.80;87.90;;;;;;5029995;28;20460;-73
2021/06/10 09:00:51;;;;;;;17.30;16.20;;;30.30;88.90;;;;;;5041070;28;20900;-73
2021/06/10 09:03:22;;;;;;;15.97;15.17;;;30.90;85.50;;;;;;5034835;28;20554;-74
2021/06/10 09:06:01;;;;;;;17.23;16.17;;;31.10;85.50;;;;;;5040441;28;20874;-73
2021/06/10 09:08:29;;;;;;;17.00;15.70;;;31.90;82.10;;;;;;5037901;28;20456;-73
2021/06/10 09:11:12;;;;;;;18.13;17.00;;;32.20;83.10;;;;;;5044561;28;20973;-73
2021/06/10 09:13:41;;;;;;;16.63;15.63;;;31.40;81.20;;;;;;5036731;28;20466;-73
2021/06/10 09:16:22;;;;;;;17.60;16.40;;;30.90;80.10;;;;;;5038529;28;20492;-74
2021/06/10 09:18:51;;;;;;;17.30;16.27;;;31.40;80.40;;;;;;5040963;28;20455;-74
2021/06/10 09:21:30;;;;;;;18.10;17.00;;;30.70;80.50;;;;;;5037347;28;20472;-74
2021/06/10 09:23:56;;;;;;;17.27;15.77;;;30.40;83.00;;;;;;5037371;28;20474;-73
2021/06/10 09:26:32;;;;;;;16.87;15.80;;;30.80;81.30;;;;;;5040661;28;20955;-74
2021/06/10 09:29:04;;;;;;;16.30;15.50;;;30.70;81.20;;;;;;5034407;28;21062;-74
2021/06/10 09:31:32;;;;;;;17.37;16.47;;;31.10;81.40;;;;;;5041743;28;20463;-74
2021/06/10 09:34:02;;;;;;;17.00;16.00;;;31.70;81.90;;;;;;5040785;28;20912;-72
2021/06/10 09:36:29;;;;;;;17.30;16.00;;;31.90;80.60;;;;;;5039136;28;20466;-74
2021/06/10 09:39:07;;;;;;;17.17;15.83;;;32.50;77.40;;;;;;5038683;28;20463;-74
2021/06/10 09:41:55;;;;;;;16.80;15.80;;;32.60;76.70;;;;;;5039339;28;20464;-73
2021/06/10 09:44:37;;;;;;;18.83;17.73;;;32.60;76.40;;;;;;5030689;28;21025;-73
2021/06/10 09:47:04;;;;;;;17.90;16.73;;;32.20;75.70;;;;;;5041248;28;20451;-73
2021/06/10 09:49:31;;;;;;;18.67;16.87;;;31.40;74.60;;;;;;5037293;28;20975;-73
2021/06/10 09:51:57;;;;;;;17.97;16.87;;;31.50;76.20;;;;;;5038542;28;20464;-73
2021/06/10 09:54:41;;;;;;;16.27;15.40;;;31.80;74.60;;;;;;5038225;28;20853;-74
2021/06/10 09:57:10;;;;;;;17.30;16.30;;;31.50;79.10;;;;;;5033975;28;20463;-74
2021/06/10 09:59:48;;;;;;;18.17;17.07;;;31.20;77.30;;;;;;5035051;28;20887;-75
2021/06/10 10:02:23;;;;;;;16.70;15.70;;;30.50;77.50;;;;;;5039992;28;20483;-72
2021/06/10 10:04:58;;;;;;;17.60;16.40;;;30.60;78.90;;;;;;5038520;28;20889;-74
2021/06/10 10:07:27;;;;;;;16.43;15.23;;;30.00;78.20;;;;;;5041802;28;20473;-74
2021/06/10 10:09:56;;;;;;;16.27;15.23;;;30.30;80.20;;;;;;5036211;28;20511;-74
2021/06/10 10:12:25;;;;;;;16.97;16.00;;;30.50;78.20;;;;;;5037880;28;20736;-75
2021/06/10 10:14:52;;;;;;;16.97;15.57;;;31.20;76.90;;;;;;5038306;28;20483;-73
2021/06/10 10:17:19;;;;;;;17.07;16.27;;;31.60;75.60;;;;;;5040805;28;20873;-73
2021/06/10 10:19:47;;;;;;;16.73;15.87;;;31.10;78.00;;;;;;5038621;28;20529;-74
2021/06/10 10:22:13;;;;;;;16.90;15.90;;;31.00;75.90;;;;;;5042870;28;20533;-73
2021/06/10 10:24:41;;;;;;;16.77;15.47;;;29.70;78.20;;;;;;5038600;28;20495;-74
2021/06/10 10:27:10;;;;;;;17.30;16.07;;;30.00;79.50;;;;;;5039072;28;20470;-72
2021/06/10 10:29:40;;;;;;;17.17;15.87;;;30.60;78.10;;;;;;5036587;28;20496;-73
2021/06/10 10:32:09;;;;;;;17.90;16.30;;;31.30;80.80;;;;;;5039705;28;20456;-73
2021/06/10 10:34:38;;;;;;;17.13;16.13;;;31.40;76.80;;;;;;5042849;28;20488;-74
2021/06/10 10:37:22;;;;;;;16.40;15.60;;;31.40;74.70;;;;;;5040727;28;20835;-73
2021/06/10 10:39:49;;;;;;;20.07;16.70;;;30.70;77.30;;;;;;5036537;28;20466;-73
2021/06/10 10:42:28;;;;;;;17.53;15.90;;;30.80;79.50;;;;;;5038780;28;20459;-74
2021/06/10 10:45:11;;;;;;;17.43;16.20;;;31.80;79.80;;;;;;5033437;28;20487;-73
2021/06/10 10:47:43;;;;;;;16.53;15.43;;;31.50;77.30;;;;;;5033052;28;21109;-74
2021/06/10 10:50:17;;;;;;;15.40;14.50;;;31.10;77.80;;;;;;5038581;28;20468;-73
2021/06/10 10:52:53;;;;;;;16.23;15.30;;;30.90;81.50;;;;;;5039401;28;20452;-74
2021/06/10 10:55:27;;;;;;;15.33;14.33;;;30.50;81.80;;;;;;5034396;28;20475;-73
2021/06/10 10:58:07;;;;;;;15.13;14.17;;;30.40;82.60;;;;;;5033924;28;20468;-73
2021/06/10 11:00:47;;;;;;;15.83;14.83;;;30.40;79.90;;;;;;5035416;28;21059;-74
2021/06/10 11:03:25;;;;;;;15.80;14.90;;;29.30;85.10;;;;;;5037314;28;20517;-74
2021/06/10 11:05:53;;;;;;;16.37;15.27;;;29.40;82.00;;;;;;5033498;28;20550;-73
2021/06/10 11:08:22;;;;;;;16.23;15.13;;;30.20;80.00;;;;;;5034052;28;20475;-74
2021/06/10 11:11:03;;;;;;;15.80;14.80;;;30.70;78.40;;;;;;5040173;28;20459;-73
2021/06/10 11:13:47;;;;;;;16.43;15.30;;;31.40;78.70;;;;;;5035004;28;20882;-73
2021/06/10 11:16:16;;;;;;;16.43;15.53;;;31.00;74.70;;;;;;5038597;28;20488;-73
2021/06/10 11:18:46;;;;;;;18.00;16.83;;;31.20;75.80;;;;;;5035892;28;20966;-74
2021/06/10 11:21:16;;;;;;;16.90;15.87;;;32.20;76.00;;;;;;5035726;28;20468;-73
2021/06/10 11:24:02;;;;;;;17.60;16.70;;;32.40;75.40;;;;;;5032810;28;20478;-74
2021/06/10 11:26:47;;;;;;;16.30;15.43;;;32.50;72.50;;;;;;5030067;28;20490;-74
2021/06/10 11:29:14;;;;;;;17.37;16.37;;;33.10;71.10;;;;;;5034090;28;20856;-74
2021/06/10 11:31:42;;;;;;;16.73;15.83;;;32.90;70.90;;;;;;5039440;28;20456;-73
2021/06/10 11:34:29;;;;;;;16.70;15.60;;;33.20;69.70;;;;;;5037629;28;20974;-73
2021/06/10 11:36:56;;;;;;;17.10;15.90;;;33.90;70.10;;;;;;5033211;28;20456;-73
2021/06/10 11:39:28;;;;;;;15.90;14.90;;;33.60;68.40;;;;;;5038974;28;20460;-73
2021/06/10 11:42:05;;;;;;;15.87;15.03;;;32.60;68.10;;;;;;5037253;28;20919;-73
2021/06/10 11:44:43;;;;;;;16.50;15.50;;;32.70;69.20;;;;;;5032968;28;20527;-74
2021/06/10 11:47:26;;;;;;;16.30;15.13;;;33.80;68.20;;;;;;5033668;28;20464;-73
2021/06/10 11:49:53;;;;;;;16.27;15.33;;;33.60;68.70;;;;;;5035000;28;20674;-74
2021/06/10 11:52:19;;;;;;;16.37;15.47;;;33.40;66.70;;;;;;5030430;28;20460;-74
2021/06/10 11:55:07;;;;;;;15.60;14.50;;;33.30;69.70;;;;;;5034502;28;20618;-74
2021/06/10 11:57:33;;;;;;;15.57;14.43;;;33.70;67.60;;;;;;5038639;28;20947;-73
2021/06/10 12:00:05;;;;;;;15.13;14.33;;;34.20;68.00;;;;;;5031832;28;20464;-73
2021/06/10 12:02:34;;;;;;;15.10;14.27;;;33.30;69.70;;;;;;5034378;28;20464;-73
2021/06/10 12:05:13;;;;;;;15.10;14.17;;;33.00;67.70;;;;;;5034167;28;20506;-72
2021/06/10 12:07:39;;;;;;;15.17;14.10;;;32.60;68.10;;;;;;5037138;28;20492;-73
2021/06/10 12:10:10;;;;;;;14.37;13.67;;;33.10;67.30;;;;;;5030399;28;20506;-74
2021/06/10 12:12:40;;;;;;;16.27;14.90;;;33.80;69.40;;;;;;5041612;28;20460;-73
2021/06/10 12:15:09;;;;;;;16.03;15.23;;;34.50;66.30;;;;;;5033454;28;20491;-74
2021/06/10 12:17:53;;;;;;;16.87;15.70;;;34.20;67.20;;;;;;5034362;28;20487;-74
2021/06/10 12:20:21;;;;;;;16.43;15.43;;;33.40;69.10;;;;;;5038018;28;20916;-74
2021/06/10 12:22:50;;;;;;;16.70;15.80;;;32.80;73.40;;;;;;5033726;28;20486;-74
2021/06/10 12:25:21;;;;;;;15.40;14.50;;;32.40;70.70;;;;;;5039427;28;20464;-74
2021/06/10 12:27:47;;;;;;;15.73;14.70;;;32.30;70.60;;;;;;5034691;28;20456;-74
2021/06/10 12:30:30;;;;;;;14.73;13.93;;;32.20;70.90;;;;;;5037066;28;20464;-73
2021/06/10 12:33:14;;;;;;;14.07;13.47;;;31.40;70.20;;;;;;5033882;28;20468;-73
2021/06/10 12:35:42;;;;;;;14.23;13.43;;;30.90;70.30;;;;;;5036685;28;21064;-73
2021/06/10 12:38:09;;;;;;;15.60;14.53;;;31.30;70.70;;;;;;5028030;28;20960;-73